sensor_id;sensor_type;location;lat;lon;timestamp;pressure;altitude;pressure_sealevel;temperature
63689;BMP280;54895;40.928;14.480;2022-10-30T00:00:33;102014.94;;;19.44
63689;BMP280;54895;40.928;14.480;2022-10-30T00:02:59;102007.25;;;19.80
63689;BMP280;54895;40.928;14.480;2022-10-30T00:05:25;102008.56;;;20.11
63689;BMP280;54895;40.928;14.480;2022-10-30T00:07:53;102006.03;;;20.13
63689;BMP280;54895;40.928;14.480;2022-10-30T00:10:19;102016.47;;;19.77
63689;BMP280;54895;40.928;14.480;2022-10-30T00:12:45;102009.19;;;19.40
63689;BMP280;54895;40.928;14.480;2022-10-30T00:15:11;102010.63;;;18.96
63689;BMP280;54895;40.928;14.480;2022-10-30T00:17:37;102007.75;;;19.09
63689;BMP280;54895;40.928;14.480;2022-10-30T00:20:04;102009.88;;;19.48
63689;BMP280;54895;40.928;14.480;2022-10-30T00:22:30;102002.69;;;19.21
63689;BMP280;54895;40.928;14.480;2022-10-30T00:24:56;102001.28;;;19.20
63689;BMP280;54895;40.928;14.480;2022-10-30T00:27:22;102004.09;;;19.59
63689;BMP280;54895;40.928;14.480;2022-10-30T00:29:48;101995.50;;;19.23
63689;BMP280;54895;40.928;14.480;2022-10-30T00:32:14;102006.31;;;19.23
63689;BMP280;54895;40.928;14.480;2022-10-30T00:34:42;102003.38;;;19.51
63689;BMP280;54895;40.928;14.480;2022-10-30T00:37:08;102003.28;;;19.81
63689;BMP280;54895;40.928;14.480;2022-10-30T00:39:34;102001.41;;;19.59
63689;BMP280;54895;40.928;14.480;2022-10-30T00:42:00;101996.94;;;19.32
63689;BMP280;54895;40.928;14.480;2022-10-30T00:44:49;102000.88;;;19.38
63689;BMP280;54895;40.928;14.480;2022-10-30T00:47:17;101996.25;;;19.16
63689;BMP280;54895;40.928;14.480;2022-10-30T00:49:49;102003.81;;;18.81
63689;BMP280;54895;40.928;14.480;2022-10-30T00:52:16;102007.75;;;18.79
63689;BMP280;54895;40.928;14.480;2022-10-30T00:54:43;101998.06;;;19.29
63689;BMP280;54895;40.928;14.480;2022-10-30T00:57:09;102000.75;;;18.77
63689;BMP280;54895;40.928;14.480;2022-10-30T00:59:35;102005.97;;;18.75
63689;BMP280;54895;40.928;14.480;2022-10-30T01:02:02;102009.91;;;18.59
63689;BMP280;54895;40.928;14.480;2022-10-30T01:04:29;102009.69;;;18.49
63689;BMP280;54895;40.928;14.480;2022-10-30T01:06:55;102007.00;;;18.57
63689;BMP280;54895;40.928;14.480;2022-10-30T01:09:22;102002.75;;;18.98
63689;BMP280;54895;40.928;14.480;2022-10-30T01:11:49;102001.81;;;18.74
63689;BMP280;54895;40.928;14.480;2022-10-30T01:14:15;101992.66;;;19.06
63689;BMP280;54895;40.928;14.480;2022-10-30T01:22:18;101985.75;;;18.38
63689;BMP280;54895;40.928;14.480;2022-10-30T01:35:43;101980.81;;;18.07
63689;BMP280;54895;40.928;14.480;2022-10-30T01:37:51;101976.72;;;18.13
63689;BMP280;54895;40.928;14.480;2022-10-30T01:40:22;101975.03;;;18.61
63689;BMP280;54895;40.928;14.480;2022-10-30T01:42:52;101966.53;;;18.42
63689;BMP280;54895;40.928;14.480;2022-10-30T01:56:27;101949.69;;;18.71
63689;BMP280;54895;40.928;14.480;2022-10-30T01:59:16;101960.72;;;18.23
63689;BMP280;54895;40.928;14.480;2022-10-30T02:01:43;101946.56;;;18.30
63689;BMP280;54895;40.928;14.480;2022-10-30T02:04:10;101952.38;;;18.64
63689;BMP280;54895;40.928;14.480;2022-10-30T02:06:38;101947.63;;;18.12
63689;BMP280;54895;40.928;14.480;2022-10-30T02:09:04;101939.25;;;17.87
63689;BMP280;54895;40.928;14.480;2022-10-30T02:11:31;101948.41;;;18.65
63689;BMP280;54895;40.928;14.480;2022-10-30T02:13:59;101957.50;;;18.17
63689;BMP280;54895;40.928;14.480;2022-10-30T02:16:26;101947.84;;;17.86
63689;BMP280;54895;40.928;14.480;2022-10-30T02:18:52;101951.25;;;17.79
63689;BMP280;54895;40.928;14.480;2022-10-30T02:21:18;101950.41;;;17.84
63689;BMP280;54895;40.928;14.480;2022-10-30T02:23:45;101942.84;;;17.82
63689;BMP280;54895;40.928;14.480;2022-10-30T02:26:11;101950.59;;;17.58
63689;BMP280;54895;40.928;14.480;2022-10-30T02:28:37;101948.78;;;17.96
63689;BMP280;54895;40.928;14.480;2022-10-30T02:31:03;101950.81;;;18.03
63689;BMP280;54895;40.928;14.480;2022-10-30T02:33:30;101945.00;;;17.84
63689;BMP280;54895;40.928;14.480;2022-10-30T02:35:56;101947.91;;;17.30
63689;BMP280;54895;40.928;14.480;2022-10-30T02:38:22;101952.47;;;17.14
63689;BMP280;54895;40.928;14.480;2022-10-30T02:40:49;101937.88;;;17.94
63689;BMP280;54895;40.928;14.480;2022-10-30T02:43:15;101946.31;;;17.34
63689;BMP280;54895;40.928;14.480;2022-10-30T02:45:42;101943.16;;;17.15
63689;BMP280;54895;40.928;14.480;2022-10-30T02:48:09;101951.16;;;17.28
63689;BMP280;54895;40.928;14.480;2022-10-30T02:50:36;101952.06;;;17.31
63689;BMP280;54895;40.928;14.480;2022-10-30T02:53:02;101947.81;;;17.43
63689;BMP280;54895;40.928;14.480;2022-10-30T02:55:28;101941.34;;;17.38
63689;BMP280;54895;40.928;14.480;2022-10-30T02:57:54;101948.13;;;17.32
63689;BMP280;54895;40.928;14.480;2022-10-30T03:00:21;101943.47;;;17.32
63689;BMP280;54895;40.928;14.480;2022-10-30T03:02:47;101939.56;;;17.13
63689;BMP280;54895;40.928;14.480;2022-10-30T03:05:13;101942.16;;;17.54
63689;BMP280;54895;40.928;14.480;2022-10-30T03:07:40;101944.47;;;17.22
63689;BMP280;54895;40.928;14.480;2022-10-30T03:10:06;101943.13;;;17.36
63689;BMP280;54895;40.928;14.480;2022-10-30T03:12:32;101940.53;;;17.23
63689;BMP280;54895;40.928;14.480;2022-10-30T03:14:58;101950.72;;;16.76
63689;BMP280;54895;40.928;14.480;2022-10-30T03:17:25;101946.91;;;16.92
63689;BMP280;54895;40.928;14.480;2022-10-30T03:19:51;101948.50;;;17.36
63689;BMP280;54895;40.928;14.480;2022-10-30T03:22:17;101946.53;;;16.54
63689;BMP280;54895;40.928;14.480;2022-10-30T03:24:43;101940.47;;;16.95
63689;BMP280;54895;40.928;14.480;2022-10-30T03:27:09;101940.56;;;16.82
63689;BMP280;54895;40.928;14.480;2022-10-30T03:29:37;101950.84;;;16.91
63689;BMP280;54895;40.928;14.480;2022-10-30T03:32:07;101945.78;;;16.47
63689;BMP280;54895;40.928;14.480;2022-10-30T03:34:40;101951.66;;;16.12
63689;BMP280;54895;40.928;14.480;2022-10-30T03:37:07;101956.28;;;16.44
63689;BMP280;54895;40.928;14.480;2022-10-30T03:39:33;101943.84;;;16.34
63689;BMP280;54895;40.928;14.480;2022-10-30T03:42:01;101943.59;;;16.45
63689;BMP280;54895;40.928;14.480;2022-10-30T03:44:27;101946.84;;;16.64
63689;BMP280;54895;40.928;14.480;2022-10-30T03:46:55;101940.56;;;16.82
63689;BMP280;54895;40.928;14.480;2022-10-30T03:49:27;101948.25;;;16.78
63689;BMP280;54895;40.928;14.480;2022-10-30T03:51:54;101948.09;;;16.63
63689;BMP280;54895;40.928;14.480;2022-10-30T03:54:22;101945.00;;;16.79
63689;BMP280;54895;40.928;14.480;2022-10-30T03:56:48;101942.03;;;16.49
63689;BMP280;54895;40.928;14.480;2022-10-30T03:59:15;101943.22;;;16.41
63689;BMP280;54895;40.928;14.480;2022-10-30T04:01:49;101940.28;;;16.52
63689;BMP280;54895;40.928;14.480;2022-10-30T04:04:15;101942.97;;;16.52
63689;BMP280;54895;40.928;14.480;2022-10-30T04:06:42;101951.34;;;16.69
63689;BMP280;54895;40.928;14.480;2022-10-30T04:09:09;101946.31;;;17.06
63689;BMP280;54895;40.928;14.480;2022-10-30T04:11:39;101948.28;;;17.06
63689;BMP280;54895;40.928;14.480;2022-10-30T04:14:06;101951.56;;;16.71
63689;BMP280;54895;40.928;14.480;2022-10-30T04:16:32;101953.63;;;15.98
63689;BMP280;54895;40.928;14.480;2022-10-30T04:19:00;101957.56;;;15.84
63689;BMP280;54895;40.928;14.480;2022-10-30T04:21:26;101952.66;;;16.55
63689;BMP280;54895;40.928;14.480;2022-10-30T04:23:52;101948.63;;;16.15
63689;BMP280;54895;40.928;14.480;2022-10-30T04:26:24;101955.91;;;15.94
63689;BMP280;54895;40.928;14.480;2022-10-30T04:28:50;101957.16;;;15.54
63689;BMP280;54895;40.928;14.480;2022-10-30T04:31:16;101951.34;;;15.76
63689;BMP280;54895;40.928;14.480;2022-10-30T04:33:42;101940.94;;;15.99
63689;BMP280;54895;40.928;14.480;2022-10-30T04:36:09;101952.59;;;15.88
63689;BMP280;54895;40.928;14.480;2022-10-30T04:38:35;101950.00;;;16.09
63689;BMP280;54895;40.928;14.480;2022-10-30T04:41:04;101951.78;;;15.93
63689;BMP280;54895;40.928;14.480;2022-10-30T04:44:09;101951.16;;;15.87
63689;BMP280;54895;40.928;14.480;2022-10-30T04:46:35;101950.69;;;16.09
63689;BMP280;54895;40.928;14.480;2022-10-30T04:49:08;101952.81;;;15.77
63689;BMP280;54895;40.928;14.480;2022-10-30T04:51:34;101943.31;;;16.02
63689;BMP280;54895;40.928;14.480;2022-10-30T04:54:00;101952.72;;;16.29
63689;BMP280;54895;40.928;14.480;2022-10-30T04:56:29;101949.88;;;16.27
63689;BMP280;54895;40.928;14.480;2022-10-30T04:58:58;101952.03;;;16.49
63689;BMP280;54895;40.928;14.480;2022-10-30T05:01:24;101954.34;;;16.45
63689;BMP280;54895;40.928;14.480;2022-10-30T05:03:50;101951.16;;;15.87
63689;BMP280;54895;40.928;14.480;2022-10-30T05:06:26;101954.16;;;16.43
63689;BMP280;54895;40.928;14.480;2022-10-30T05:08:53;101945.38;;;15.83
63689;BMP280;54895;40.928;14.480;2022-10-30T05:11:39;101947.03;;;15.73
63689;BMP280;54895;40.928;14.480;2022-10-30T05:14:06;101953.59;;;16.24
63689;BMP280;54895;40.928;14.480;2022-10-30T05:16:32;101946.09;;;15.58
63689;BMP280;54895;40.928;14.480;2022-10-30T05:19:01;101949.66;;;16.25
63689;BMP280;54895;40.928;14.480;2022-10-30T05:21:28;101949.09;;;15.93
63689;BMP280;54895;40.928;14.480;2022-10-30T05:23:54;101949.09;;;15.67
63689;BMP280;54895;40.928;14.480;2022-10-30T05:26:22;101949.16;;;14.91
63689;BMP280;54895;40.928;14.480;2022-10-30T05:28:50;101944.31;;;15.34
63689;BMP280;54895;40.928;14.480;2022-10-30T05:31:19;101951.66;;;15.47
63689;BMP280;54895;40.928;14.480;2022-10-30T05:34:03;101950.50;;;15.42
63689;BMP280;54895;40.928;14.480;2022-10-30T05:36:30;101947.38;;;15.25
63689;BMP280;54895;40.928;14.480;2022-10-30T05:38:56;101951.16;;;16.00
63689;BMP280;54895;40.928;14.480;2022-10-30T05:41:30;101951.13;;;16.13
63689;BMP280;54895;40.928;14.480;2022-10-30T05:43:56;101949.72;;;15.60
63689;BMP280;54895;40.928;14.480;2022-10-30T05:46:24;101951.84;;;15.36
63689;BMP280;54895;40.928;14.480;2022-10-30T05:48:52;101953.63;;;15.72
63689;BMP280;54895;40.928;14.480;2022-10-30T05:51:20;101951.13;;;16.13
63689;BMP280;54895;40.928;14.480;2022-10-30T05:53:51;101957.25;;;16.47
63689;BMP280;54895;40.928;14.480;2022-10-30T05:56:20;101953.88;;;16.34
63689;BMP280;54895;40.928;14.480;2022-10-30T05:58:49;101956.00;;;16.48
63689;BMP280;54895;40.928;14.480;2022-10-30T06:01:15;101945.44;;;16.50
63689;BMP280;54895;40.928;14.480;2022-10-30T06:03:45;101950.78;;;16.83
63689;BMP280;54895;40.928;14.480;2022-10-30T06:06:11;101953.22;;;16.74
63689;BMP280;54895;40.928;14.480;2022-10-30T06:08:39;101955.25;;;16.81
63689;BMP280;54895;40.928;14.480;2022-10-30T06:11:23;101956.84;;;16.43
63689;BMP280;54895;40.928;14.480;2022-10-30T06:13:53;101964.34;;;16.44
63689;BMP280;54895;40.928;14.480;2022-10-30T06:16:26;101961.00;;;16.31
63689;BMP280;54895;40.928;14.480;2022-10-30T06:19:05;101962.38;;;16.58
63689;BMP280;54895;40.928;14.480;2022-10-30T06:21:33;101961.72;;;16.65
63689;BMP280;54895;40.928;14.480;2022-10-30T06:24:12;101962.78;;;16.62
63689;BMP280;54895;40.928;14.480;2022-10-30T06:26:47;101964.25;;;17.32
63689;BMP280;54895;40.928;14.480;2022-10-30T06:29:15;101967.63;;;17.25
63689;BMP280;54895;40.928;14.480;2022-10-30T06:31:41;101970.41;;;17.40
63689;BMP280;54895;40.928;14.480;2022-10-30T06:34:08;101964.72;;;17.23
63689;BMP280;54895;40.928;14.480;2022-10-30T06:36:37;101971.03;;;17.05
63689;BMP280;54895;40.928;14.480;2022-10-30T06:39:04;101969.44;;;17.30
63689;BMP280;54895;40.928;14.480;2022-10-30T06:41:38;101977.34;;;17.28
63689;BMP280;54895;40.928;14.480;2022-10-30T06:44:30;101978.53;;;16.99
63689;BMP280;54895;40.928;14.480;2022-10-30T06:46:56;101977.34;;;17.28
63689;BMP280;54895;40.928;14.480;2022-10-30T06:49:22;101976.09;;;17.57
63689;BMP280;54895;40.928;14.480;2022-10-30T06:51:50;101977.03;;;17.67
63689;BMP280;54895;40.928;14.480;2022-10-30T06:54:16;101975.56;;;17.94
63689;BMP280;54895;40.928;14.480;2022-10-30T06:57:02;101980.44;;;18.03
63689;BMP280;54895;40.928;14.480;2022-10-30T06:59:54;101982.38;;;18.53
63689;BMP280;54895;40.928;14.480;2022-10-30T07:02:29;101990.47;;;19.42
63689;BMP280;54895;40.928;14.480;2022-10-30T07:05:00;101984.16;;;19.47
63689;BMP280;54895;40.928;14.480;2022-10-30T07:07:28;101984.91;;;19.33
63689;BMP280;54895;40.928;14.480;2022-10-30T07:09:54;101986.16;;;18.57
63689;BMP280;54895;40.928;14.480;2022-10-30T07:15:14;101985.44;;;19.31
63689;BMP280;54895;40.928;14.480;2022-10-30T07:18:01;101981.81;;;19.36
63689;BMP280;54895;40.928;14.480;2022-10-30T07:20:30;101989.75;;;19.34
63689;BMP280;54895;40.928;14.480;2022-10-30T07:22:56;101994.69;;;19.75
63689;BMP280;54895;40.928;14.480;2022-10-30T07:25:22;101986.03;;;19.69
63689;BMP280;54895;40.928;14.480;2022-10-30T07:27:59;101994.97;;;19.94
63689;BMP280;54895;40.928;14.480;2022-10-30T07:30:35;101985.75;;;20.29
63689;BMP280;54895;40.928;14.480;2022-10-30T07:33:27;101986.88;;;20.19
63689;BMP280;54895;40.928;14.480;2022-10-30T07:36:12;101984.63;;;20.08
63689;BMP280;54895;40.928;14.480;2022-10-30T07:39:01;101981.47;;;20.26
63689;BMP280;54895;40.928;14.480;2022-10-30T07:41:34;101988.22;;;20.42
63689;BMP280;54895;40.928;14.480;2022-10-30T07:44:19;101993.72;;;20.27
63689;BMP280;54895;40.928;14.480;2022-10-30T07:46:52;102000.13;;;20.63
63689;BMP280;54895;40.928;14.480;2022-10-30T07:49:26;101992.69;;;20.71
63689;BMP280;54895;40.928;14.480;2022-10-30T07:51:57;101989.59;;;20.92
63689;BMP280;54895;40.928;14.480;2022-10-30T07:54:24;101999.34;;;21.12
63689;BMP280;54895;40.928;14.480;2022-10-30T07:56:51;101999.84;;;21.18
63689;BMP280;54895;40.928;14.480;2022-10-30T07:59:36;101989.47;;;21.07
63689;BMP280;54895;40.928;14.480;2022-10-30T08:02:18;101992.84;;;21.15
63689;BMP280;54895;40.928;14.480;2022-10-30T08:05:08;101988.22;;;21.25
63689;BMP280;54895;40.928;14.480;2022-10-30T08:07:57;101987.25;;;21.47
63689;BMP280;54895;40.928;14.480;2022-10-30T08:10:23;101982.84;;;21.51
63689;BMP280;54895;40.928;14.480;2022-10-30T08:15:54;101988.91;;;21.86
63689;BMP280;54895;40.928;14.480;2022-10-30T08:18:21;101983.00;;;21.97
63689;BMP280;54895;40.928;14.480;2022-10-30T08:20:48;101986.38;;;22.14
63689;BMP280;54895;40.928;14.480;2022-10-30T08:23:15;101980.94;;;22.59
63689;BMP280;54895;40.928;14.480;2022-10-30T08:25:42;101979.13;;;22.90
63689;BMP280;54895;40.928;14.480;2022-10-30T08:28:08;101972.44;;;22.91
63689;BMP280;54895;40.928;14.480;2022-10-30T08:30:37;101986.44;;;23.16
63689;BMP280;54895;40.928;14.480;2022-10-30T08:33:05;101985.72;;;23.25
63689;BMP280;54895;40.928;14.480;2022-10-30T08:36:10;101990.06;;;23.77
63689;BMP280;54895;40.928;14.480;2022-10-30T08:38:36;101980.13;;;23.61
63689;BMP280;54895;40.928;14.480;2022-10-30T08:41:20;101987.28;;;23.87
63689;BMP280;54895;40.928;14.480;2022-10-30T08:43:50;101985.84;;;24.26
63689;BMP280;54895;40.928;14.480;2022-10-30T08:46:17;101988.03;;;24.18
63689;BMP280;54895;40.928;14.480;2022-10-30T08:48:43;101981.72;;;24.46
63689;BMP280;54895;40.928;14.480;2022-10-30T08:51:09;101982.97;;;24.54
63689;BMP280;54895;40.928;14.480;2022-10-30T08:53:41;101990.66;;;24.37
63689;BMP280;54895;40.928;14.480;2022-10-30T08:56:12;101990.09;;;24.59
63689;BMP280;54895;40.928;14.480;2022-10-30T08:58:50;101983.81;;;24.78
63689;BMP280;54895;40.928;14.480;2022-10-30T09:01:16;101988.59;;;24.89
63689;BMP280;54895;40.928;14.480;2022-10-30T09:04:22;101989.97;;;24.78
63689;BMP280;54895;40.928;14.480;2022-10-30T09:06:48;102001.88;;;24.52
63689;BMP280;54895;40.928;14.480;2022-10-30T09:09:44;102002.88;;;24.78
63689;BMP280;54895;40.928;14.480;2022-10-30T09:12:10;102008.16;;;24.34
63689;BMP280;54895;40.928;14.480;2022-10-30T09:14:42;102011.50;;;24.74
63689;BMP280;54895;40.928;14.480;2022-10-30T09:17:10;102013.38;;;24.72
63689;BMP280;54895;40.928;14.480;2022-10-30T09:19:38;102019.47;;;24.61
63689;BMP280;54895;40.928;14.480;2022-10-30T09:22:06;102017.84;;;25.09
63689;BMP280;54895;40.928;14.480;2022-10-30T09:24:38;102018.03;;;25.02
63689;BMP280;54895;40.928;14.480;2022-10-30T09:27:23;102023.63;;;25.59
63689;BMP280;54895;40.928;14.480;2022-10-30T09:29:54;102028.50;;;25.16
63689;BMP280;54895;40.928;14.480;2022-10-30T09:32:23;102020.16;;;25.35
63689;BMP280;54895;40.928;14.480;2022-10-30T09:35:09;102024.38;;;25.82
63689;BMP280;54895;40.928;14.480;2022-10-30T09:37:38;102025.34;;;25.98
63689;BMP280;54895;40.928;14.480;2022-10-30T09:40:09;102016.69;;;26.13
63689;BMP280;54895;40.928;14.480;2022-10-30T09:42:47;102025.06;;;26.17
63689;BMP280;54895;40.928;14.480;2022-10-30T10:04:45;102022.00;;;26.34
63689;BMP280;54895;40.928;14.480;2022-10-30T10:07:27;102008.63;;;26.63
63689;BMP280;54895;40.928;14.480;2022-10-30T10:11:02;102014.44;;;26.94
63689;BMP280;54895;40.928;14.480;2022-10-30T10:13:09;102017.28;;;26.96
63689;BMP280;54895;40.928;14.480;2022-10-30T10:15:43;102008.66;;;27.13
63689;BMP280;54895;40.928;14.480;2022-10-30T10:18:18;102012.13;;;27.27
63689;BMP280;54895;40.928;14.480;2022-10-30T10:20:46;101999.81;;;26.76
63689;BMP280;54895;40.928;14.480;2022-10-30T10:23:18;102004.91;;;26.70
63689;BMP280;54895;40.928;14.480;2022-10-30T10:25:54;101994.44;;;26.30
63689;BMP280;54895;40.928;14.480;2022-10-30T10:28:26;101992.81;;;26.98
63689;BMP280;54895;40.928;14.480;2022-10-30T10:31:04;101993.72;;;27.41
63689;BMP280;54895;40.928;14.480;2022-10-30T10:33:37;101998.03;;;27.70
63689;BMP280;54895;40.928;14.480;2022-10-30T10:36:32;101989.00;;;27.68
63689;BMP280;54895;40.928;14.480;2022-10-30T10:39:58;101983.63;;;27.05
63689;BMP280;54895;40.928;14.480;2022-10-30T10:41:56;101985.25;;;27.88
63689;BMP280;54895;40.928;14.480;2022-10-30T10:44:27;101982.09;;;27.53
63689;BMP280;54895;40.928;14.480;2022-10-30T10:47:22;101983.94;;;27.89
63689;BMP280;54895;40.928;14.480;2022-10-30T10:52:13;101975.53;;;27.85
63689;BMP280;54895;40.928;14.480;2022-10-30T10:54:41;101973.00;;;28.45
63689;BMP280;54895;40.928;14.480;2022-10-30T10:57:11;101972.66;;;28.52
63689;BMP280;54895;40.928;14.480;2022-10-30T10:59:41;101977.56;;;27.98
63689;BMP280;54895;40.928;14.480;2022-10-30T11:02:21;101974.66;;;28.37
63689;BMP280;54895;40.928;14.480;2022-10-30T11:04:49;101969.34;;;28.41
63689;BMP280;54895;40.928;14.480;2022-10-30T11:07:20;101973.78;;;28.05
63689;BMP280;54895;40.928;14.480;2022-10-30T11:09:48;101965.25;;;27.19
63689;BMP280;54895;40.928;14.480;2022-10-30T11:12:17;101964.44;;;26.91
63689;BMP280;54895;40.928;14.480;2022-10-30T11:14:44;101966.91;;;26.99
63689;BMP280;54895;40.928;14.480;2022-10-30T11:19:36;101969.53;;;28.16
63689;BMP280;54895;40.928;14.480;2022-10-30T11:22:03;101961.78;;;28.26
63689;BMP280;54895;40.928;14.480;2022-10-30T11:24:34;101964.38;;;27.81
63689;BMP280;54895;40.928;14.480;2022-10-30T11:29:58;101958.13;;;27.65
63689;BMP280;54895;40.928;14.480;2022-10-30T11:32:26;101962.50;;;27.19
63689;BMP280;54895;40.928;14.480;2022-10-30T11:35:10;101957.03;;;27.19
63689;BMP280;54895;40.928;14.480;2022-10-30T11:37:39;101958.69;;;27.50
63689;BMP280;54895;40.928;14.480;2022-10-30T11:42:34;101948.78;;;27.97
63689;BMP280;54895;40.928;14.480;2022-10-30T11:45:02;101942.56;;;28.68
63689;BMP280;54895;40.928;14.480;2022-10-30T11:47:36;101939.84;;;28.68
63689;BMP280;54895;40.928;14.480;2022-10-30T11:50:13;101945.34;;;28.83
63689;BMP280;54895;40.928;14.480;2022-10-30T11:52:42;101933.44;;;28.48
63689;BMP280;54895;40.928;14.480;2022-10-30T11:55:17;101940.91;;;28.76
63689;BMP280;54895;40.928;14.480;2022-10-30T11:57:44;101930.13;;;28.07
63689;BMP280;54895;40.928;14.480;2022-10-30T12:00:16;101935.50;;;27.38
63689;BMP280;54895;40.928;14.480;2022-10-30T12:02:43;101934.19;;;27.79
63689;BMP280;54895;40.928;14.480;2022-10-30T12:05:27;101929.19;;;28.45
63689;BMP280;54895;40.928;14.480;2022-10-30T12:08:09;101923.84;;;27.91
63689;BMP280;54895;40.928;14.480;2022-10-30T12:13:18;101929.22;;;29.07
63689;BMP280;54895;40.928;14.480;2022-10-30T12:15:46;101920.75;;;29.82
63689;BMP280;54895;40.928;14.480;2022-10-30T12:18:18;101913.50;;;29.07
63689;BMP280;54895;40.928;14.480;2022-10-30T12:20:46;101909.25;;;29.20
63689;BMP280;54895;40.928;14.480;2022-10-30T12:23:18;101905.78;;;28.73
63689;BMP280;54895;40.928;14.480;2022-10-30T12:25:47;101901.44;;;29.30
63689;BMP280;54895;40.928;14.480;2022-10-30T12:28:20;101895.22;;;29.45
63689;BMP280;54895;40.928;14.480;2022-10-30T12:36:49;101886.34;;;30.31
63689;BMP280;54895;40.928;14.480;2022-10-30T12:42:14;101886.59;;;29.85
63689;BMP280;54895;40.928;14.480;2022-10-30T12:49:53;101878.31;;;29.02
63689;BMP280;54895;40.928;14.480;2022-10-30T12:52:24;101881.50;;;29.12
63689;BMP280;54895;40.928;14.480;2022-10-30T12:54:57;101877.84;;;29.55
63689;BMP280;54895;40.928;14.480;2022-10-30T12:57:26;101876.22;;;29.83
63689;BMP280;54895;40.928;14.480;2022-10-30T13:04:49;101875.28;;;29.94
63689;BMP280;54895;40.928;14.480;2022-10-30T13:10:04;101871.72;;;30.44
63689;BMP280;54895;40.928;14.480;2022-10-30T13:12:40;101870.53;;;30.88
63689;BMP280;54895;40.928;14.480;2022-10-30T13:17:37;101871.28;;;30.32
63689;BMP280;54895;40.928;14.480;2022-10-30T13:20:10;101869.47;;;30.58
63689;BMP280;54895;40.928;14.480;2022-10-30T13:43:03;101860.38;;;30.34
63689;BMP280;54895;40.928;14.480;2022-10-30T13:48:11;101858.53;;;29.69
63689;BMP280;54895;40.928;14.480;2022-10-30T13:53:11;101848.63;;;30.51
63689;BMP280;54895;40.928;14.480;2022-10-30T13:55:40;101855.84;;;31.42
63689;BMP280;54895;40.928;14.480;2022-10-30T14:03:23;101866.88;;;30.62
63689;BMP280;54895;40.928;14.480;2022-10-30T14:10:59;101861.81;;;30.74
63689;BMP280;54895;40.928;14.480;2022-10-30T14:13:30;101852.91;;;30.19
63689;BMP280;54895;40.928;14.480;2022-10-30T14:16:29;101851.00;;;30.04
63689;BMP280;54895;40.928;14.480;2022-10-30T14:18:59;101853.78;;;30.41
63689;BMP280;54895;40.928;14.480;2022-10-30T14:24:28;101848.38;;;30.62
63689;BMP280;54895;40.928;14.480;2022-10-30T14:32:30;101850.47;;;30.83
63689;BMP280;54895;40.928;14.480;2022-10-30T14:39:54;101842.56;;;30.74
63689;BMP280;54895;40.928;14.480;2022-10-30T14:42:28;101838.13;;;30.84
63689;BMP280;54895;40.928;14.480;2022-10-30T14:45:13;101851.69;;;31.00
63689;BMP280;54895;40.928;14.480;2022-10-30T14:50:41;101849.28;;;31.50
63689;BMP280;54895;40.928;14.480;2022-10-30T14:58:35;101842.91;;;31.67
63689;BMP280;54895;40.928;14.480;2022-10-30T15:09:06;101834.59;;;31.23
63689;BMP280;54895;40.928;14.480;2022-10-30T15:14:07;101836.91;;;30.51
63689;BMP280;54895;40.928;14.480;2022-10-30T15:16:37;101842.22;;;30.64
63689;BMP280;54895;40.928;14.480;2022-10-30T15:19:04;101837.06;;;30.54
63689;BMP280;54895;40.928;14.480;2022-10-30T15:21:31;101834.63;;;30.26
63689;BMP280;54895;40.928;14.480;2022-10-30T15:23:59;101838.69;;;30.05
63689;BMP280;54895;40.928;14.480;2022-10-30T15:26:35;101835.25;;;29.87
63689;BMP280;54895;40.928;14.480;2022-10-30T15:29:01;101832.50;;;29.87
63689;BMP280;54895;40.928;14.480;2022-10-30T15:31:28;101832.72;;;29.93
63689;BMP280;54895;40.928;14.480;2022-10-30T15:33:55;101833.66;;;29.82
63689;BMP280;54895;40.928;14.480;2022-10-30T15:39:02;101839.41;;;30.25
63689;BMP280;54895;40.928;14.480;2022-10-30T15:41:28;101835.38;;;30.09
63689;BMP280;54895;40.928;14.480;2022-10-30T15:43:55;101834.72;;;30.10
63689;BMP280;54895;40.928;14.480;2022-10-30T15:46:23;101841.63;;;30.11
63689;BMP280;54895;40.928;14.480;2022-10-30T15:48:49;101829.56;;;29.83
63689;BMP280;54895;40.928;14.480;2022-10-30T15:51:20;101840.84;;;29.56
63689;BMP280;54895;40.928;14.480;2022-10-30T15:53:47;101839.19;;;29.17
63689;BMP280;54895;40.928;14.480;2022-10-30T15:58:47;101838.38;;;28.66
63689;BMP280;54895;40.928;14.480;2022-10-30T16:01:29;101835.72;;;28.52
63689;BMP280;54895;40.928;14.480;2022-10-30T16:03:56;101837.75;;;28.08
63689;BMP280;54895;40.928;14.480;2022-10-30T16:06:23;101838.38;;;27.77
63689;BMP280;54895;40.928;14.480;2022-10-30T16:08:50;101827.16;;;27.44
63689;BMP280;54895;40.928;14.480;2022-10-30T16:11:17;101833.25;;;27.16
63689;BMP280;54895;40.928;14.480;2022-10-30T16:13:47;101835.44;;;26.79
63689;BMP280;54895;40.928;14.480;2022-10-30T16:16:26;101833.31;;;26.78
63689;BMP280;54895;40.928;14.480;2022-10-30T16:18:56;101829.91;;;26.52
63689;BMP280;54895;40.928;14.480;2022-10-30T16:21:24;101834.25;;;26.57
63689;BMP280;54895;40.928;14.480;2022-10-30T16:23:56;101837.25;;;26.88
63689;BMP280;54895;40.928;14.480;2022-10-30T16:26:30;101844.66;;;26.99
63689;BMP280;54895;40.928;14.480;2022-10-30T16:29:19;101847.56;;;26.76
63689;BMP280;54895;40.928;14.480;2022-10-30T16:31:47;101843.56;;;26.91
63689;BMP280;54895;40.928;14.480;2022-10-30T16:34:21;101850.47;;;26.67
63689;BMP280;54895;40.928;14.480;2022-10-30T16:36:49;101848.94;;;26.64
63689;BMP280;54895;40.928;14.480;2022-10-30T16:39:16;101854.03;;;26.20
63689;BMP280;54895;40.928;14.480;2022-10-30T16:41:43;101848.94;;;26.14
63689;BMP280;54895;40.928;14.480;2022-10-30T16:44:13;101854.28;;;26.12
63689;BMP280;54895;40.928;14.480;2022-10-30T16:46:50;101865.47;;;25.93